createdAt,value
2022-10-14T00:00:32.273Z,47.40
2022-10-14T00:03:02.017Z,47.00
2022-10-14T00:05:31.887Z,46.90
2022-10-14T00:08:01.662Z,46.40
2022-10-14T00:10:34.015Z,47.50
2022-10-14T00:13:03.709Z,47.90
2022-10-14T00:15:33.756Z,48.40
2022-10-14T00:18:03.542Z,48.40
2022-10-14T00:20:33.267Z,47.50
2022-10-14T00:23:03.458Z,47.60
2022-10-14T00:25:40.373Z,47.70
2022-10-14T00:28:10.091Z,46.80
2022-10-14T00:30:39.866Z,46.70
2022-10-14T00:33:09.569Z,46.60
2022-10-14T00:35:39.356Z,47.20
2022-10-14T00:38:09.041Z,47.00
2022-10-14T00:40:41.464Z,47.40
2022-10-14T00:43:14.870Z,47.40
2022-10-14T00:45:44.598Z,47.20
2022-10-14T00:48:15.193Z,48.40
2022-10-14T00:50:46.661Z,48.40
2022-10-14T00:53:16.761Z,48.40
2022-10-14T00:55:49.354Z,49.60
2022-10-14T00:58:19.294Z,49.90
2022-10-14T01:00:49.093Z,50.50
2022-10-14T01:03:22.708Z,51.00
2022-10-14T01:06:01.756Z,51.40
2022-10-14T01:08:38.061Z,52.50
2022-10-14T01:11:16.008Z,52.50
2022-10-14T01:13:51.453Z,52.50
2022-10-14T01:16:28.510Z,52.50
2022-10-14T01:19:11.997Z,53.20
2022-10-14T01:21:46.641Z,53.40
2022-10-14T01:24:43.053Z,53.70
2022-10-14T01:27:38.363Z,53.40
2022-10-14T01:30:20.876Z,53.90
2022-10-14T01:33:09.837Z,54.90
2022-10-14T01:35:58.991Z,54.70
2022-10-14T01:38:34.658Z,54.30
2022-10-14T01:41:10.197Z,52.60
2022-10-14T01:43:42.619Z,52.50
2022-10-14T01:46:16.197Z,50.60
2022-10-14T01:48:50.158Z,49.80
2022-10-14T01:51:23.248Z,49.00
2022-10-14T01:53:59.090Z,48.00
2022-10-14T01:56:30.464Z,45.90
2022-10-14T01:59:01.059Z,45.00
2022-10-14T02:01:34.944Z,44.40
2022-10-14T02:04:04.849Z,44.10
2022-10-14T02:06:38.716Z,43.10
2022-10-14T02:09:19.030Z,44.10
2022-10-14T02:11:58.322Z,43.50
2022-10-14T02:14:40.659Z,43.70
2022-10-14T02:17:18.510Z,43.00
2022-10-14T02:19:55.334Z,40.50
2022-10-14T02:22:31.405Z,39.60
2022-10-14T02:25:21.331Z,39.10
2022-10-14T02:27:53.253Z,40.10
2022-10-14T02:30:24.281Z,42.10
2022-10-14T02:32:58.872Z,42.70
2022-10-14T02:35:29.117Z,44.70
2022-10-14T02:38:00.581Z,47.70
2022-10-14T02:40:36.951Z,48.90
2022-10-14T02:43:09.954Z,50.80
2022-10-14T02:45:40.363Z,52.00
2022-10-14T02:48:13.317Z,53.60
2022-10-14T02:50:44.188Z,54.40
2022-10-14T02:53:17.221Z,55.80
2022-10-14T02:55:46.986Z,56.00
2022-10-14T02:58:16.906Z,57.00
2022-10-14T03:00:46.636Z,57.30
2022-10-14T03:03:19.266Z,57.30
2022-10-14T03:05:49.095Z,57.60
2022-10-14T03:08:19.022Z,58.90
2022-10-14T03:10:49.792Z,58.90
2022-10-14T03:13:19.846Z,59.60
2022-10-14T03:15:51.169Z,59.70
2022-10-14T03:18:24.262Z,59.80
2022-10-14T03:20:54.006Z,59.90
2022-10-14T03:23:23.791Z,60.10
2022-10-14T03:25:53.511Z,61.40
2022-10-14T03:28:23.528Z,61.40
2022-10-14T03:30:53.328Z,61.90
2022-10-14T03:33:26.413Z,62.10
2022-10-14T03:35:56.478Z,62.70
2022-10-14T03:38:26.196Z,63.10
2022-10-14T03:40:55.921Z,63.10
2022-10-14T03:43:25.831Z,63.50
2022-10-14T03:45:55.547Z,64.00
2022-10-14T03:48:27.873Z,64.10
2022-10-14T03:50:57.659Z,63.80
2022-10-14T03:53:27.440Z,64.10
2022-10-14T03:55:57.328Z,64.10
2022-10-14T03:58:27.079Z,64.00
2022-10-14T04:00:56.782Z,64.00
2022-10-14T04:03:29.073Z,64.10
2022-10-14T04:05:59.049Z,64.00
2022-10-14T04:08:28.891Z,64.00
2022-10-14T04:10:59.078Z,64.20
2022-10-14T04:13:28.879Z,64.20
2022-10-14T04:15:58.631Z,64.60
2022-10-14T04:18:30.925Z,64.70
2022-10-14T04:21:03.621Z,64.30
2022-10-14T04:23:33.590Z,64.60
2022-10-14T04:26:06.928Z,64.80
2022-10-14T04:28:37.834Z,65.20
2022-10-14T04:31:08.437Z,65.00
2022-10-14T04:33:40.772Z,65.40
2022-10-14T04:36:11.341Z,65.40
2022-10-14T04:38:41.087Z,65.50
2022-10-14T04:41:10.811Z,65.30
2022-10-14T04:43:40.590Z,65.40
2022-10-14T04:46:10.318Z,65.40
2022-10-14T04:48:42.615Z,65.50
2022-10-14T04:51:12.338Z,65.50
2022-10-14T04:53:42.042Z,65.40
2022-10-14T04:56:11.884Z,65.00
2022-10-14T04:58:41.604Z,64.90
2022-10-14T05:01:11.312Z,65.20
2022-10-14T05:03:43.579Z,65.10
2022-10-14T05:06:13.375Z,65.20
2022-10-14T05:08:43.125Z,65.10
2022-10-14T05:11:13.479Z,64.80
2022-10-14T05:13:43.422Z,64.80
2022-10-14T05:16:13.308Z,64.90
2022-10-14T05:18:45.681Z,64.80
2022-10-14T05:21:15.414Z,64.20
2022-10-14T05:23:45.325Z,64.00
2022-10-14T05:26:15.056Z,63.90
2022-10-14T05:28:45.081Z,64.10
2022-10-14T05:31:14.843Z,64.10
2022-10-14T05:33:47.162Z,64.10
2022-10-14T05:36:16.904Z,64.00
2022-10-14T05:38:47.053Z,64.00
2022-10-14T05:41:16.777Z,64.10
2022-10-14T05:43:46.553Z,64.00
2022-10-14T05:46:16.277Z,64.00
2022-10-14T05:48:48.593Z,63.70
2022-10-14T05:51:21.180Z,63.00
2022-10-14T05:53:50.969Z,62.70
2022-10-14T05:56:20.709Z,63.60
2022-10-14T05:58:50.415Z,63.50
2022-10-14T06:01:20.366Z,63.20
2022-10-14T06:03:55.751Z,63.40
2022-10-14T06:06:28.944Z,63.50
2022-10-14T06:08:59.338Z,62.50
2022-10-14T06:11:29.184Z,62.80
2022-10-14T06:13:58.949Z,63.00
2022-10-14T06:16:28.729Z,62.50
2022-10-14T06:19:01.079Z,62.40
2022-10-14T06:21:30.796Z,62.60
2022-10-14T06:24:00.577Z,62.20
2022-10-14T06:26:30.548Z,61.80
2022-10-14T06:29:00.383Z,62.10
2022-10-14T06:31:32.504Z,61.90
2022-10-14T06:34:07.686Z,62.30
2022-10-14T06:36:38.807Z,62.20
2022-10-14T06:39:08.540Z,61.30
2022-10-14T06:41:38.288Z,61.20
2022-10-14T06:44:08.143Z,60.80
2022-10-14T06:46:37.856Z,60.70
2022-10-14T06:49:10.890Z,60.40
2022-10-14T06:51:40.700Z,60.50
2022-10-14T06:54:10.722Z,60.30
2022-10-14T06:56:40.446Z,60.10
2022-10-14T06:59:10.167Z,59.10
2022-10-14T07:01:39.925Z,58.90
2022-10-14T07:04:12.332Z,57.80
2022-10-14T07:06:42.144Z,57.20
2022-10-14T07:09:11.908Z,56.70
2022-10-14T07:11:42.862Z,56.60
2022-10-14T07:14:13.142Z,55.10
2022-10-14T07:16:45.303Z,54.80
2022-10-14T07:19:17.870Z,54.90
2022-10-14T07:21:48.051Z,54.80
2022-10-14T07:24:17.885Z,55.60
2022-10-14T07:26:47.665Z,55.60
2022-10-14T07:29:17.429Z,55.20
2022-10-14T07:31:47.320Z,54.10
2022-10-14T07:34:19.748Z,55.40
2022-10-14T07:36:49.766Z,54.80
2022-10-14T07:39:19.544Z,53.80
2022-10-14T07:41:49.285Z,52.60
2022-10-14T07:44:23.562Z,50.60
2022-10-14T07:46:56.287Z,49.60
2022-10-14T07:49:28.603Z,46.80
2022-10-14T07:51:58.356Z,45.50
2022-10-14T07:54:30.075Z,45.40
2022-10-14T07:57:00.225Z,45.00
2022-10-14T07:59:29.997Z,45.70
2022-10-14T08:02:00.005Z,44.90
2022-10-14T08:04:32.455Z,45.80
2022-10-14T08:07:03.925Z,44.90
2022-10-14T08:09:36.613Z,42.30
2022-10-14T08:12:07.149Z,40.60
2022-10-14T08:14:36.876Z,39.30
2022-10-14T08:17:06.596Z,38.40
2022-10-14T08:19:39.121Z,39.00
2022-10-14T08:22:08.834Z,39.30
2022-10-14T08:24:38.555Z,37.60
2022-10-14T08:27:08.262Z,36.90
2022-10-14T08:29:38.081Z,38.50
2022-10-14T08:32:08.107Z,36.90
2022-10-14T08:34:40.485Z,37.00
2022-10-14T08:37:13.617Z,37.00
2022-10-14T08:39:43.666Z,36.80
2022-10-14T08:42:33.715Z,36.90
2022-10-14T08:45:08.995Z,36.90
2022-10-14T08:47:42.053Z,36.20
2022-10-14T08:50:25.114Z,37.00
2022-10-14T08:53:00.542Z,35.40
2022-10-14T08:55:36.736Z,36.80
2022-10-14T08:58:14.227Z,36.90
2022-10-14T09:00:44.898Z,38.10
2022-10-14T09:03:20.549Z,37.00
2022-10-14T09:05:59.793Z,35.60
2022-10-14T09:08:33.418Z,35.20
2022-10-14T09:11:03.554Z,33.50
2022-10-14T09:13:38.295Z,33.00
2022-10-14T09:16:13.016Z,31.00
2022-10-14T09:18:44.805Z,30.40
2022-10-14T09:21:47.997Z,29.10
2022-10-14T09:24:22.481Z,29.00
2022-10-14T09:29:29.069Z,27.30
2022-10-14T09:32:00.864Z,24.20
2022-10-14T09:34:35.388Z,22.50
2022-10-14T09:37:25.806Z,24.70
2022-10-14T09:39:58.748Z,22.80
2022-10-14T09:42:38.327Z,23.20
2022-10-14T09:45:16.203Z,21.60
2022-10-14T09:47:52.474Z,23.00
2022-10-14T09:50:26.148Z,22.40
2022-10-14T09:53:06.058Z,21.50
2022-10-14T09:55:38.181Z,21.60
2022-10-14T09:58:10.811Z,21.50
2022-10-14T10:00:40.962Z,21.40
2022-10-14T10:03:16.225Z,22.80
2022-10-14T10:05:47.095Z,20.70
2022-10-14T10:08:22.602Z,21.70
2022-10-14T10:11:05.491Z,21.60
2022-10-14T10:13:44.641Z,19.20
2022-10-14T10:16:24.551Z,20.10
2022-10-14T10:18:57.187Z,20.40
2022-10-14T10:21:30.090Z,20.10
2022-10-14T10:24:04.621Z,18.50
2022-10-14T10:26:35.743Z,22.10
2022-10-14T10:29:08.017Z,19.30
2022-10-14T10:31:55.673Z,19.50
2022-10-14T10:34:50.206Z,21.90
2022-10-14T10:37:29.074Z,20.20
2022-10-14T10:40:20.374Z,21.90
2022-10-14T10:43:00.782Z,19.10
2022-10-14T10:45:40.862Z,19.80
2022-10-14T10:48:18.461Z,18.80
2022-10-14T10:50:58.290Z,21.10
2022-10-14T10:53:46.169Z,16.40
2022-10-14T10:56:28.457Z,12.90
2022-10-14T10:59:12.679Z,13.10
2022-10-14T11:01:51.743Z,14.10
2022-10-14T11:04:32.864Z,12.90
2022-10-14T11:07:28.044Z,11.90
2022-10-14T11:10:18.586Z,10.70
2022-10-14T11:12:59.962Z,11.90
2022-10-14T11:15:43.124Z,12.30
2022-10-14T11:18:17.063Z,9.20
2022-10-14T11:21:00.074Z,11.40
2022-10-14T11:23:42.862Z,11.70
2022-10-14T11:26:21.334Z,12.70
2022-10-14T11:29:04.274Z,12.60
2022-10-14T11:31:39.884Z,16.60
2022-10-14T11:34:30.168Z,16.10
2022-10-14T11:37:15.438Z,16.90
2022-10-14T11:39:51.251Z,19.60
2022-10-14T11:42:29.143Z,24.50
2022-10-14T11:45:21.365Z,25.60
2022-10-14T11:47:55.537Z,28.80
2022-10-14T11:50:29.000Z,31.10
2022-10-14T11:53:04.225Z,34.40
2022-10-14T11:55:38.633Z,33.90
2022-10-14T11:58:09.800Z,36.80
2022-10-14T12:01:13.998Z,37.50
2022-10-14T12:03:54.936Z,37.70
2022-10-14T12:06:29.584Z,38.30
2022-10-14T12:09:03.939Z,38.40
2022-10-14T12:11:35.710Z,36.10
2022-10-14T12:14:12.866Z,33.10
2022-10-14T12:16:47.751Z,33.90
2022-10-14T12:19:22.483Z,31.20
2022-10-14T12:21:56.847Z,29.10
2022-10-14T12:24:30.719Z,28.10
2022-10-14T12:27:04.730Z,26.60
2022-10-14T12:29:38.529Z,25.80
2022-10-14T12:32:27.099Z,27.20
2022-10-14T12:34:58.252Z,27.40
2022-10-14T12:37:54.203Z,27.20
2022-10-14T12:40:36.562Z,25.50
2022-10-14T12:43:14.583Z,21.60
2022-10-14T12:45:59.430Z,22.60
2022-10-14T12:48:35.511Z,20.00
2022-10-14T12:51:14.715Z,18.50
2022-10-14T12:53:54.235Z,18.20
2022-10-14T12:56:33.695Z,16.00
2022-10-14T12:59:05.702Z,15.60
2022-10-14T13:01:36.516Z,13.30
2022-10-14T13:04:19.987Z,16.30
2022-10-14T13:07:47.166Z,14.80
2022-10-14T13:10:47.936Z,14.60
2022-10-14T13:13:49.257Z,13.30
2022-10-14T13:17:03.760Z,12.80
2022-10-14T13:19:47.022Z,14.80
2022-10-14T13:22:42.015Z,12.50
2022-10-14T13:25:19.075Z,12.40
2022-10-14T13:28:29.413Z,12.00
2022-10-14T13:31:06.232Z,13.30
2022-10-14T13:33:43.498Z,13.30
2022-10-14T13:36:20.743Z,13.20
2022-10-14T13:38:56.564Z,11.70
2022-10-14T13:41:30.851Z,9.20
2022-10-14T13:44:02.382Z,6.90
2022-10-14T13:46:36.590Z,6.20
2022-10-14T13:49:07.781Z,5.30
2022-10-14T13:51:47.611Z,5.60
2022-10-14T13:54:19.967Z,6.50
2022-10-14T13:57:38.130Z,5.90
2022-10-14T14:00:39.132Z,5.80
2022-10-14T14:02:51.482Z,4.80
2022-10-14T14:05:24.323Z,5.80
2022-10-14T14:11:14.950Z,4.90
2022-10-14T14:13:56.127Z,5.30
2022-10-14T14:16:34.047Z,5.00
2022-10-14T14:19:09.636Z,4.20
2022-10-14T14:21:40.770Z,4.80
2022-10-14T14:24:25.929Z,4.00
2022-10-14T14:26:57.824Z,4.70
2022-10-14T14:29:30.887Z,11.30
2022-10-14T14:32:07.275Z,16.50
2022-10-14T14:34:40.102Z,21.30
2022-10-14T14:37:34.425Z,21.60
2022-10-14T14:40:05.379Z,25.00
2022-10-14T14:42:39.536Z,26.70
2022-10-14T14:45:15.419Z,26.90
2022-10-14T14:47:45.669Z,26.90
2022-10-14T14:50:29.953Z,27.60
2022-10-14T14:53:05.425Z,26.70
2022-10-14T14:55:56.077Z,29.10
2022-10-14T14:58:32.600Z,30.10
2022-10-14T15:01:02.516Z,30.00
2022-10-14T15:03:35.924Z,30.60
2022-10-14T15:06:08.028Z,31.70
2022-10-14T15:08:39.831Z,30.80
2022-10-14T15:11:10.997Z,33.00
2022-10-14T15:13:53.302Z,33.20
2022-10-14T15:16:41.470Z,33.80
2022-10-14T15:19:37.319Z,33.10
2022-10-14T15:22:14.160Z,34.30
2022-10-14T15:24:59.194Z,34.20
2022-10-14T15:27:49.509Z,34.90
2022-10-14T15:30:27.709Z,35.60
2022-10-14T15:33:02.339Z,35.30
2022-10-14T15:35:32.992Z,37.60
2022-10-14T15:38:02.763Z,36.00
2022-10-14T15:40:34.779Z,37.00
2022-10-14T15:43:04.548Z,37.80
2022-10-14T15:45:36.878Z,38.50
2022-10-14T15:48:06.714Z,38.50
2022-10-14T15:50:39.528Z,38.60
2022-10-14T15:53:10.799Z,39.20
2022-10-14T15:55:40.531Z,37.80
2022-10-14T15:58:10.263Z,37.30
2022-10-14T16:00:43.320Z,38.30
2022-10-14T16:03:13.485Z,38.30
2022-10-14T16:05:43.224Z,35.90
2022-10-14T16:08:16.390Z,35.70
2022-10-14T16:10:47.271Z,35.10
2022-10-14T16:13:17.571Z,34.90
2022-10-14T16:15:52.715Z,35.80
2022-10-14T16:18:24.575Z,35.80
2022-10-14T16:20:54.817Z,36.00
2022-10-14T16:23:30.997Z,36.30
2022-10-14T16:26:02.446Z,36.50
2022-10-14T16:28:32.214Z,37.10
2022-10-14T16:31:04.594Z,37.40
2022-10-14T16:33:34.327Z,38.10
2022-10-14T16:36:06.885Z,38.90
2022-10-14T16:38:36.942Z,38.00
2022-10-14T16:41:09.939Z,39.20
2022-10-14T16:43:39.952Z,40.10
2022-10-14T16:46:15.707Z,41.40
2022-10-14T16:48:45.616Z,43.20
2022-10-14T16:51:15.511Z,42.90
2022-10-14T16:53:48.812Z,44.30
2022-10-14T16:56:33.197Z,45.60
2022-10-14T16:59:03.734Z,46.20
2022-10-14T17:01:36.309Z,46.90
2022-10-14T17:04:06.095Z,48.30
2022-10-14T17:06:35.859Z,48.10
2022-10-14T17:09:05.967Z,48.40
2022-10-14T17:11:36.643Z,48.20
2022-10-14T17:14:07.193Z,46.30
2022-10-14T17:16:39.559Z,47.10
2022-10-14T17:19:09.291Z,47.10
2022-10-14T17:21:39.652Z,47.50
2022-10-14T17:24:10.109Z,48.30
2022-10-14T17:26:39.829Z,47.90
2022-10-14T17:29:09.633Z,47.80
2022-10-14T17:31:42.005Z,48.30
2022-10-14T17:34:12.032Z,48.70
2022-10-14T17:36:42.676Z,48.20
2022-10-14T17:39:22.812Z,47.40
2022-10-14T17:41:59.131Z,48.00
2022-10-14T17:44:29.029Z,48.30
2022-10-14T17:47:02.115Z,48.50
2022-10-14T17:49:32.514Z,48.30
2022-10-14T17:52:04.501Z,50.00
2022-10-14T17:54:34.244Z,50.00
2022-10-14T17:57:03.993Z,50.10
2022-10-14T17:59:34.818Z,50.10
2022-10-14T18:02:09.629Z,49.30
2022-10-14T18:04:39.587Z,49.40
2022-10-14T18:07:09.316Z,48.30
2022-10-14T18:09:39.082Z,47.60
2022-10-14T18:12:10.097Z,47.60
2022-10-14T18:14:40.910Z,48.00
2022-10-14T18:17:14.617Z,48.40
2022-10-14T18:19:47.225Z,48.60
2022-10-14T18:22:21.308Z,49.10
2022-10-14T18:24:51.021Z,49.60
2022-10-14T18:27:20.979Z,50.00
2022-10-14T18:29:51.004Z,48.40
2022-10-14T18:32:23.611Z,47.00
2022-10-14T18:34:53.532Z,46.70
2022-10-14T18:37:23.257Z,46.60
2022-10-14T18:39:52.972Z,45.90
2022-10-14T18:42:23.193Z,47.40
2022-10-14T18:44:53.294Z,48.30
2022-10-14T18:47:25.678Z,49.30
2022-10-14T18:49:55.417Z,49.00
2022-10-14T18:52:25.479Z,49.80
2022-10-14T18:54:55.381Z,50.30
2022-10-14T18:57:25.113Z,51.00
2022-10-14T18:59:54.939Z,52.70
2022-10-14T19:02:27.259Z,53.70
2022-10-14T19:04:57.017Z,54.70
2022-10-14T19:07:26.998Z,56.20
2022-10-14T19:09:57.888Z,57.60
2022-10-14T19:12:40.409Z,57.80
2022-10-14T19:15:14.240Z,58.80
2022-10-14T19:17:50.928Z,59.70
2022-10-14T19:20:23.454Z,60.10
2022-10-14T19:22:56.710Z,60.80
2022-10-14T19:25:27.045Z,61.30
2022-10-14T19:27:56.992Z,61.70
2022-10-14T19:30:27.414Z,62.20
2022-10-14T19:32:59.713Z,62.60
2022-10-14T19:35:29.429Z,62.70
2022-10-14T19:37:59.182Z,62.80
2022-10-14T19:40:28.915Z,63.30
2022-10-14T19:42:58.621Z,61.90
2022-10-14T19:45:28.364Z,62.40
2022-10-14T19:48:00.651Z,62.40
2022-10-14T19:50:30.384Z,61.50
2022-10-14T19:53:00.440Z,61.70
2022-10-14T19:55:30.171Z,61.60
2022-10-14T19:57:59.897Z,61.80
2022-10-14T20:00:29.683Z,62.30
2022-10-14T20:03:02.109Z,62.30
2022-10-14T20:05:31.885Z,62.30
2022-10-14T20:08:02.137Z,63.00
2022-10-14T20:10:32.031Z,62.50
2022-10-14T20:13:01.755Z,62.60
2022-10-14T20:15:31.564Z,62.30
2022-10-14T20:18:03.891Z,63.20
2022-10-14T20:20:33.894Z,63.00
2022-10-14T20:23:03.616Z,62.50
2022-10-14T20:25:33.355Z,62.60
2022-10-14T20:28:03.058Z,62.10
2022-10-14T20:30:32.773Z,62.40
2022-10-14T20:33:05.127Z,62.60
2022-10-14T20:35:34.886Z,62.60
2022-10-14T20:38:04.771Z,62.70
2022-10-14T20:40:37.147Z,62.30
2022-10-14T20:43:07.495Z,62.80
2022-10-14T20:45:37.222Z,63.00
2022-10-14T20:48:09.570Z,63.30
2022-10-14T20:50:39.264Z,62.90
2022-10-14T20:53:09.099Z,63.10
2022-10-14T20:55:38.811Z,62.80
2022-10-14T20:58:08.518Z,62.70
2022-10-14T21:00:38.253Z,63.30
2022-10-14T21:03:10.575Z,63.10
2022-10-14T21:05:40.672Z,63.60
2022-10-14T21:08:10.401Z,63.10
2022-10-14T21:10:40.091Z,63.10
2022-10-14T21:13:09.805Z,63.20
2022-10-14T21:15:39.512Z,62.90
2022-10-14T21:18:12.009Z,63.20
2022-10-14T21:20:41.737Z,63.50
2022-10-14T21:23:11.497Z,63.80
2022-10-14T21:25:41.210Z,63.50
2022-10-14T21:28:10.968Z,64.20
2022-10-14T21:30:43.040Z,64.20
2022-10-14T21:33:15.369Z,64.10
2022-10-14T21:35:45.081Z,64.60
2022-10-14T21:38:14.886Z,65.00
2022-10-14T21:40:44.581Z,65.20
2022-10-14T21:43:14.305Z,65.40
2022-10-14T21:45:44.018Z,65.50
2022-10-14T21:48:16.668Z,66.00
2022-10-14T21:50:46.378Z,66.10
2022-10-14T21:53:16.343Z,67.30
2022-10-14T21:55:46.052Z,67.30
2022-10-14T21:58:15.744Z,67.80
2022-10-14T22:00:45.452Z,68.30
2022-10-14T22:03:19.345Z,68.90
2022-10-14T22:05:49.041Z,69.20
2022-10-14T22:08:23.013Z,69.40
2022-10-14T22:10:52.742Z,69.40
2022-10-14T22:13:22.463Z,69.60
2022-10-14T22:15:52.171Z,69.70
2022-10-14T22:18:24.932Z,70.20
2022-10-14T22:21:04.906Z,70.50
2022-10-14T22:23:34.955Z,70.80
2022-10-14T22:26:05.865Z,71.40
2022-10-14T22:28:35.921Z,71.80
2022-10-14T22:31:09.604Z,72.10
2022-10-14T22:33:42.987Z,72.40
2022-10-14T22:36:19.373Z,72.90
2022-10-14T22:38:52.926Z,73.50
2022-10-14T22:41:23.652Z,73.50
2022-10-14T22:43:55.699Z,74.40
2022-10-14T22:46:26.907Z,74.60
2022-10-14T22:49:00.878Z,74.50
2022-10-14T22:51:32.563Z,75.30
2022-10-14T22:54:02.647Z,75.50
2022-10-14T22:56:33.817Z,75.60
2022-10-14T22:59:05.642Z,75.90
2022-10-14T23:01:35.999Z,76.10
2022-10-14T23:04:08.577Z,76.10
2022-10-14T23:06:38.334Z,76.20
2022-10-14T23:09:08.092Z,76.40
2022-10-14T23:11:37.826Z,76.40
2022-10-14T23:14:07.681Z,76.40
2022-10-14T23:16:37.499Z,76.50
2022-10-14T23:19:12.592Z,76.60
2022-10-14T23:21:42.569Z,77.30
2022-10-14T23:24:14.879Z,77.40
2022-10-14T23:26:44.652Z,77.40
2022-10-14T23:29:14.730Z,77.40
2022-10-14T23:31:45.055Z,77.60
2022-10-14T23:34:17.396Z,77.60
2022-10-14T23:36:47.150Z,77.70
2022-10-14T23:39:17.646Z,78.30
2022-10-14T23:41:47.382Z,77.70
2022-10-14T23:44:17.221Z,77.70
2022-10-14T23:46:50.329Z,77.80
2022-10-14T23:49:25.897Z,77.90
2022-10-14T23:51:56.741Z,77.80
2022-10-14T23:54:26.800Z,78.10
2022-10-14T23:56:56.492Z,78.10
2022-10-14T23:59:26.193Z,78.10
